Time;durP1;ratioP1;P1;durP2;ratioP2;P2;SDS_P1;SDS_P2;PMS_P1;PMS_P2;Temp;Humidity;BMP_temperature;BMP_pressure;BME280_temperature;BME280_humidity;BME280_pressure;Samples;Min_cycle;Max_cycle;Signal;HPM_P1;HPM_P2
2023/06/15 00:01:59;;;;;;;6.72;1.77;;;24.00;52.20;;;;;;5072202;28;20036;-66
2023/06/15 00:04:24;;;;;;;2.65;1.33;;;24.00;52.20;;;;;;5071875;28;20412;-66
2023/06/15 00:06:50;;;;;;;3.95;2.15;;;24.00;52.20;;;;;;5071978;28;20048;-66
2023/06/15 00:09:16;;;;;;;3.25;1.67;;;24.00;52.20;;;;;;5072395;28;20086;-66
2023/06/15 00:11:41;;;;;;;2.53;1.40;;;24.00;52.20;;;;;;5073272;28;20036;-66
2023/06/15 00:14:07;;;;;;;3.80;1.40;;;24.00;52.30;;;;;;5071369;28;20044;-66
2023/06/15 00:16:33;;;;;;;3.70;1.70;;;23.90;52.20;;;;;;5071922;28;20177;-66
2023/06/15 00:19:01;;;;;;;3.03;2.13;;;24.00;52.30;;;;;;5072945;28;20119;-66
2023/06/15 00:21:27;;;;;;;;;;;24.00;52.30;;;;;;5073662;28;20044;-66
2023/06/15 00:23:53;;;;;;;3.35;1.52;;;23.90;52.20;;;;;;5070905;28;20388;-66
2023/06/15 00:26:19;;;;;;;3.13;1.50;;;23.90;52.30;;;;;;5071421;28;20071;-66
2023/06/15 00:28:44;;;;;;;3.85;2.10;;;23.90;52.30;;;;;;5072012;28;20059;-65
2023/06/15 00:31:10;;;;;;;3.75;1.88;;;23.90;52.30;;;;;;5072698;28;20047;-66
2023/06/15 00:33:35;;;;;;;2.33;1.40;;;23.90;52.30;;;;;;5072829;28;20044;-66
2023/06/15 00:36:04;;;;;;;2.55;1.52;;;23.90;52.30;;;;;;5081045;28;20044;-67
2023/06/15 00:38:29;;;;;;;3.05;1.63;;;23.90;52.30;;;;;;5091100;28;20036;-66
2023/06/15 00:40:55;;;;;;;3.38;1.50;;;23.90;52.30;;;;;;5092708;28;20043;-66
2023/06/15 00:43:20;;;;;;;3.80;1.60;;;23.90;52.30;;;;;;5089754;28;20392;-66
2023/06/15 00:45:46;;;;;;;3.75;1.70;;;23.90;52.30;;;;;;5072189;28;20127;-66
2023/06/15 00:48:12;;;;;;;3.42;1.67;;;23.90;53.00;;;;;;5070693;28;20049;-66
2023/06/15 00:50:38;;;;;;;2.55;1.40;;;23.90;52.40;;;;;;5054223;28;20036;-66
2023/06/15 00:53:05;;;;;;;3.50;1.52;;;23.90;52.40;;;;;;5072463;28;20115;-66
2023/06/15 00:55:34;;;;;;;3.70;1.75;;;23.90;52.40;;;;;;5071091;28;20424;-66
2023/06/15 00:58:01;;;;;;;4.00;1.52;;;23.90;52.40;;;;;;5053357;28;20544;-66
2023/06/15 01:00:27;;;;;;;2.85;1.77;;;23.90;52.40;;;;;;5054028;28;20037;-66
2023/06/15 01:02:56;;;;;;;3.75;1.60;;;23.90;52.40;;;;;;5071341;28;20052;-66
2023/06/15 01:05:22;;;;;;;2.75;1.38;;;23.90;52.40;;;;;;5071294;28;20407;-66
2023/06/15 01:07:48;;;;;;;3.08;1.40;;;23.90;52.40;;;;;;5072641;28;20066;-66
2023/06/15 01:10:15;;;;;;;3.50;1.55;;;23.90;52.40;;;;;;5050726;28;20032;-66
2023/06/15 01:12:41;;;;;;;3.17;1.23;;;23.90;52.40;;;;;;5050412;28;20045;-66
2023/06/15 01:15:10;;;;;;;2.30;1.42;;;23.80;52.40;;;;;;5066489;28;20461;-66
2023/06/15 01:17:37;;;;;;;2.78;1.50;;;23.90;52.40;;;;;;5087435;28;20051;-66
2023/06/15 01:20:07;;;;;;;4.03;1.60;;;23.90;52.50;;;;;;5042703;28;20041;-66
2023/06/15 01:22:59;;;;;;;2.60;1.40;;;23.80;52.40;;;;;;5071046;28;20576;-66
2023/06/15 01:25:37;;;;;;;3.17;1.30;;;23.90;52.40;;;;;;5069928;28;20136;-66
2023/06/15 01:28:03;;;;;;;;;;;23.80;52.40;;;;;;5062848;28;20068;-66
2023/06/15 01:30:36;;;;;;;2.58;1.40;;;23.80;52.40;;;;;;5051031;28;19943;-66
2023/06/15 01:33:01;;;;;;;2.60;1.48;;;23.80;52.40;;;;;;5032451;28;20048;-66
2023/06/15 01:35:27;;;;;;;3.45;1.23;;;23.80;52.40;;;;;;5070464;28;20041;-66
2023/06/15 01:37:53;;;;;;;2.75;1.40;;;23.80;52.40;;;;;;5090805;28;20043;-66
2023/06/15 01:40:18;;;;;;;3.17;1.52;;;23.80;52.40;;;;;;5075975;28;20041;-66
2023/06/15 01:42:44;;;;;;;3.08;1.45;;;23.80;52.40;;;;;;5070793;28;20506;-66
2023/06/15 01:45:10;;;;;;;2.75;1.30;;;23.80;52.50;;;;;;5070477;28;20392;-66
2023/06/15 01:47:37;;;;;;;2.22;1.55;;;23.80;52.40;;;;;;5070146;28;20076;-66
2023/06/15 01:50:02;;;;;;;3.55;1.40;;;23.80;53.20;;;;;;5070616;28;20044;-66
2023/06/15 01:52:28;;;;;;;2.33;1.40;;;23.80;52.50;;;;;;5056992;28;20403;-66
2023/06/15 01:54:54;;;;;;;2.10;1.30;;;23.80;52.50;;;;;;5074060;28;20087;-66
2023/06/15 01:57:20;;;;;;;2.72;1.30;;;23.80;52.40;;;;;;5075657;28;20476;-66
2023/06/15 01:59:45;;;;;;;3.22;1.38;;;23.70;52.40;;;;;;5074416;28;20093;-66
2023/06/15 02:02:11;;;;;;;2.17;1.42;;;23.80;52.50;;;;;;5081896;28;20040;-66
2023/06/15 02:04:36;;;;;;;3.13;1.58;;;23.80;52.50;;;;;;5086607;28;20165;-66
2023/06/15 02:07:02;;;;;;;2.38;1.25;;;23.70;52.40;;;;;;5073917;28;20381;-66
2023/06/15 02:09:28;;;;;;;2.85;1.50;;;23.80;52.50;;;;;;5074571;28;20047;-67
2023/06/15 02:11:54;;;;;;;3.78;1.40;;;23.80;52.50;;;;;;5074460;28;20044;-66
2023/06/15 02:14:23;;;;;;;2.60;1.50;;;23.70;53.20;;;;;;5083446;28;20434;-66
2023/06/15 02:16:49;;;;;;;1.92;1.30;;;23.80;52.50;;;;;;5075268;28;20037;-66
2023/06/15 02:19:20;;;;;;;2.22;1.45;;;23.70;52.50;;;;;;5073887;28;20091;-66
2023/06/15 02:21:49;;;;;;;2.17;1.30;;;23.70;52.50;;;;;;5074470;28;20052;-66
2023/06/15 02:24:16;;;;;;;3.05;1.20;;;23.70;52.50;;;;;;5075113;28;20123;-66
2023/06/15 02:26:42;;;;;;;2.85;1.40;;;23.70;52.50;;;;;;5075096;28;20089;-66
2023/06/15 02:29:08;;;;;;;2.13;1.17;;;23.70;52.50;;;;;;5065794;28;20051;-66
2023/06/15 02:31:33;;;;;;;2.22;1.30;;;23.70;52.50;;;;;;5074040;28;20053;-66
2023/06/15 02:33:59;;;;;;;2.78;1.40;;;23.70;52.50;;;;;;5077628;28;20535;-66
2023/06/15 02:36:25;;;;;;;3.17;1.30;;;23.70;52.50;;;;;;5073175;28;20442;-66
2023/06/15 02:38:51;;;;;;;2.45;1.20;;;23.70;52.60;;;;;;5075070;28;20080;-66
2023/06/15 02:41:16;;;;;;;2.42;1.15;;;23.70;52.60;;;;;;5074733;28;20130;-66
2023/06/15 02:43:42;;;;;;;1.98;1.27;;;23.70;52.50;;;;;;5074390;28;20357;-66
2023/06/15 02:46:07;;;;;;;2.80;1.38;;;23.70;52.60;;;;;;5074222;28;20037;-66
2023/06/15 02:48:34;;;;;;;2.67;1.50;;;23.70;52.60;;;;;;5073496;28;20040;-66
2023/06/15 02:51:00;;;;;;;3.28;1.50;;;23.70;52.60;;;;;;5072273;28;20113;-67
2023/06/15 02:53:25;;;;;;;3.30;1.27;;;23.70;52.60;;;;;;5073934;28;20119;-67
2023/06/15 02:55:51;;;;;;;2.38;1.38;;;23.70;52.70;;;;;;5073838;28;20051;-67
2023/06/15 02:58:20;;;;;;;2.53;1.33;;;23.70;52.70;;;;;;5074117;28;20056;-66
2023/06/15 03:00:49;;;;;;;;;;;23.70;52.60;;;;;;5074389;28;20044;-66
2023/06/15 03:03:16;;;;;;;2.90;1.80;;;23.60;52.60;;;;;;5074367;28;20057;-66
2023/06/15 03:05:42;;;;;;;4.55;1.40;;;23.60;52.60;;;;;;5072930;28;20072;-66
2023/06/15 03:08:08;;;;;;;2.55;1.30;;;23.60;52.70;;;;;;5073374;28;20072;-66
2023/06/15 03:10:33;;;;;;;3.30;1.40;;;23.60;52.70;;;;;;5072908;28;20048;-67
2023/06/15 03:13:00;;;;;;;3.13;1.50;;;23.70;52.70;;;;;;5073333;28;20094;-66
2023/06/15 03:15:25;;;;;;;2.63;1.42;;;23.60;52.70;;;;;;5073648;28;20123;-66
2023/06/15 03:17:51;;;;;;;2.42;1.30;;;23.70;52.80;;;;;;5073889;28;20159;-67
2023/06/15 03:20:17;;;;;;;2.50;1.13;;;23.60;52.70;;;;;;5074503;28;20128;-66
2023/06/15 03:22:42;;;;;;;2.47;1.23;;;23.60;52.70;;;;;;5073401;28;20044;-66
2023/06/15 03:25:11;;;;;;;1.80;1.10;;;23.60;52.70;;;;;;5072287;28;20083;-67
2023/06/15 03:27:37;;;;;;;2.80;1.30;;;23.60;52.80;;;;;;5074472;28;20052;-67
2023/06/15 03:30:05;;;;;;;2.25;1.42;;;23.60;52.90;;;;;;5072909;28;20123;-66
2023/06/15 03:32:32;;;;;;;;;;;23.60;52.80;;;;;;5074120;28;20090;-66
2023/06/15 03:34:57;;;;;;;2.30;1.17;;;23.60;52.70;;;;;;5073119;28;20379;-66
2023/06/15 03:37:23;;;;;;;3.08;1.33;;;23.60;52.80;;;;;;5074594;28;20071;-66
2023/06/15 03:39:48;;;;;;;2.60;1.23;;;23.60;52.80;;;;;;5072310;28;20040;-66
2023/06/15 03:42:15;;;;;;;2.25;1.40;;;23.60;52.80;;;;;;5072612;28;20086;-67
2023/06/15 03:44:40;;;;;;;3.03;1.35;;;23.60;52.80;;;;;;5074329;28;20048;-67
2023/06/15 03:47:06;;;;;;;2.40;1.38;;;23.60;52.80;;;;;;5072869;28;20064;-66
2023/06/15 03:49:32;;;;;;;2.25;1.20;;;23.60;52.80;;;;;;5072851;28;20123;-67
2023/06/15 03:51:57;;;;;;;1.88;1.20;;;23.60;52.80;;;;;;5072442;28;20037;-67
2023/06/15 03:54:23;;;;;;;1.67;0.93;;;23.50;52.70;;;;;;5073622;28;20040;-67
2023/06/15 03:56:49;;;;;;;2.90;1.45;;;23.60;52.80;;;;;;5072740;28;20137;-67
2023/06/15 03:59:15;;;;;;;2.63;1.27;;;23.50;52.70;;;;;;5072235;28;20044;-67
2023/06/15 04:01:40;;;;;;;4.15;1.45;;;23.60;52.80;;;;;;5067766;28;20534;-67
2023/06/15 04:04:06;;;;;;;2.30;1.30;;;23.50;52.70;;;;;;5072213;28;20051;-67
2023/06/15 04:06:32;;;;;;;1.83;1.20;;;23.50;52.80;;;;;;5073216;28;20075;-67
2023/06/15 04:08:58;;;;;;;2.78;1.58;;;23.50;52.70;;;;;;5070940;28;20045;-67
2023/06/15 04:11:24;;;;;;;2.20;1.10;;;23.50;52.80;;;;;;5072486;28;20047;-66
2023/06/15 04:13:49;;;;;;;2.25;1.27;;;23.50;52.70;;;;;;5070686;28;20044;-67
2023/06/15 04:16:15;;;;;;;2.35;1.30;;;23.50;52.80;;;;;;5055100;28;20047;-67
2023/06/15 04:18:41;;;;;;;2.42;1.38;;;23.50;52.80;;;;;;5072243;28;20036;-67
2023/06/15 04:21:07;;;;;;;2.28;1.10;;;23.50;52.80;;;;;;5071369;28;20452;-67
2023/06/15 04:23:32;;;;;;;2.47;1.30;;;23.50;52.80;;;;;;5072493;28;20447;-67
2023/06/15 04:26:00;;;;;;;3.47;1.65;;;23.60;52.90;;;;;;5071671;28;20037;-67
2023/06/15 04:28:26;;;;;;;1.67;1.00;;;23.50;52.80;;;;;;5071306;28;20079;-67
2023/06/15 04:31:06;;;;;;;2.03;1.25;;;23.50;52.80;;;;;;5072983;28;20082;-66
2023/06/15 04:33:32;;;;;;;1.67;1.10;;;23.50;52.80;;;;;;5073590;28;20098;-67
2023/06/15 04:35:57;;;;;;;3.03;1.40;;;23.50;52.80;;;;;;5072141;28;20048;-67
2023/06/15 04:38:23;;;;;;;2.05;1.20;;;23.50;52.80;;;;;;5072022;28;20124;-67
2023/06/15 04:40:48;;;;;;;3.92;1.40;;;23.50;52.80;;;;;;5072263;28;20072;-67
2023/06/15 04:43:14;;;;;;;1.73;1.10;;;23.50;52.90;;;;;;5072105;28;20182;-67
2023/06/15 04:45:40;;;;;;;2.78;1.33;;;23.50;52.80;;;;;;5071624;28;20080;-66
2023/06/15 04:48:08;;;;;;;2.25;1.30;;;23.50;52.80;;;;;;5072746;28;20041;-67
2023/06/15 04:50:35;;;;;;;2.80;1.40;;;23.50;52.90;;;;;;5072539;28;20037;-67
2023/06/15 04:53:00;;;;;;;1.85;1.20;;;23.50;52.80;;;;;;5072971;28;20090;-67
2023/06/15 04:55:26;;;;;;;2.15;1.35;;;23.50;53.20;;;;;;5073030;28;20137;-67
2023/06/15 04:57:51;;;;;;;3.15;1.40;;;23.50;52.90;;;;;;5072293;28;20041;-67
2023/06/15 05:00:17;;;;;;;1.85;1.35;;;23.50;52.90;;;;;;5072824;28;20040;-67
2023/06/15 05:02:43;;;;;;;3.10;1.45;;;23.50;52.90;;;;;;5072983;28;20041;-67
2023/06/15 05:05:10;;;;;;;3.25;1.33;;;23.50;52.80;;;;;;5054157;28;20032;-67
2023/06/15 05:07:35;;;;;;;3.08;1.30;;;23.50;52.90;;;;;;5071557;28;20044;-68
2023/06/15 05:10:03;;;;;;;2.63;1.10;;;23.50;52.80;;;;;;5072580;28;20063;-68
2023/06/15 05:12:28;;;;;;;2.92;1.30;;;23.50;52.80;;;;;;5071674;28;20203;-67
2023/06/15 05:14:54;;;;;;;3.08;1.70;;;23.50;52.80;;;;;;5072946;28;20131;-67
2023/06/15 05:17:20;;;;;;;2.10;1.17;;;23.50;52.80;;;;;;5070334;28;20037;-67
2023/06/15 05:19:45;;;;;;;2.75;1.30;;;23.50;52.80;;;;;;5064038;28;20045;-67
2023/06/15 05:22:11;;;;;;;2.58;1.38;;;23.50;52.80;;;;;;5072387;28;20048;-66
2023/06/15 05:24:36;;;;;;;1.95;1.20;;;23.50;52.70;;;;;;5087353;28;20044;-67
2023/06/15 05:27:02;;;;;;;3.15;1.60;;;23.50;52.70;;;;;;5070953;28;20047;-68
2023/06/15 05:29:28;;;;;;;3.03;1.40;;;23.50;52.70;;;;;;5052621;28;20049;-66
2023/06/15 05:31:55;;;;;;;2.97;1.48;;;23.50;52.70;;;;;;5051790;28;20087;-66
2023/06/15 05:34:21;;;;;;;3.40;1.48;;;23.50;52.70;;;;;;5052263;28;20049;-66
2023/06/15 05:36:46;;;;;;;2.22;1.10;;;23.50;52.70;;;;;;5052793;28;20040;-66
2023/06/15 05:39:12;;;;;;;2.97;1.48;;;23.50;52.60;;;;;;5049871;28;20037;-66
2023/06/15 05:41:38;;;;;;;2.13;1.40;;;23.50;52.60;;;;;;5051268;28;20053;-66
2023/06/15 05:44:04;;;;;;;2.78;1.40;;;23.50;52.60;;;;;;5052377;28;20036;-66
2023/06/15 05:46:29;;;;;;;2.42;1.45;;;23.50;52.60;;;;;;5050506;28;20103;-66
2023/06/15 05:48:55;;;;;;;2.20;1.10;;;23.50;52.60;;;;;;5052707;28;20198;-66
2023/06/15 05:51:20;;;;;;;2.78;1.60;;;23.50;52.60;;;;;;5052294;28;20037;-66
2023/06/15 05:53:46;;;;;;;2.25;1.30;;;23.50;52.60;;;;;;5051632;28;20052;-66
2023/06/15 05:56:11;;;;;;;2.25;1.27;;;23.50;52.60;;;;;;5050838;28;20047;-72
2023/06/15 05:58:38;;;;;;;3.53;1.50;;;23.50;52.60;;;;;;5052381;28;20572;-68
2023/06/15 06:01:03;;;;;;;2.83;1.33;;;23.50;52.60;;;;;;5051062;28;20052;-66
2023/06/15 06:03:29;;;;;;;3.33;1.48;;;23.50;52.70;;;;;;5052273;28;20052;-63
2023/06/15 06:05:55;;;;;;;5.18;1.80;;;23.50;52.70;;;;;;5052355;28;20045;-63
2023/06/15 06:08:21;;;;;;;5.53;2.25;;;23.50;52.70;;;;;;5050821;28;20489;-62
2023/06/15 06:10:47;;;;;;;8.82;2.88;;;23.50;51.60;;;;;;5052003;28;20092;-63
2023/06/15 06:13:12;;;;;;;10.20;2.88;;;23.50;50.30;;;;;;5051850;28;20053;-63
2023/06/15 06:15:38;;;;;;;6.70;3.05;;;23.40;49.20;;;;;;5050044;28;20037;-63
2023/06/15 06:18:04;;;;;;;5.07;2.72;;;23.40;48.70;;;;;;5050551;28;20045;-63
2023/06/15 06:20:31;;;;;;;6.18;2.55;;;23.30;48.50;;;;;;5051433;28;20049;-63
2023/06/15 06:22:56;;;;;;;6.32;2.70;;;23.30;48.30;;;;;;5051930;28;20542;-63
2023/06/15 06:25:22;;;;;;;7.47;3.13;;;23.20;48.00;;;;;;5052940;28;20123;-63
2023/06/15 06:27:48;;;;;;;6.15;2.70;;;23.20;47.70;;;;;;5061920;28;20054;-63
2023/06/15 06:30:13;;;;;;;5.35;2.50;;;23.20;47.70;;;;;;5069946;28;20048;-65
2023/06/15 06:32:39;;;;;;;9.35;3.22;;;23.10;47.70;;;;;;5070358;28;20043;-65
2023/06/15 06:35:05;;;;;;;6.28;2.80;;;23.10;47.90;;;;;;5070393;28;20509;-64
2023/06/15 06:37:31;;;;;;;5.75;2.72;;;23.00;47.70;;;;;;5072827;28;20041;-64
2023/06/15 06:39:56;;;;;;;5.40;2.85;;;23.00;47.40;;;;;;5074833;28;20089;-67
2023/06/15 06:42:22;;;;;;;6.47;2.60;;;23.00;47.30;;;;;;5074454;28;20051;-70
2023/06/15 06:44:47;;;;;;;5.22;2.72;;;23.00;47.20;;;;;;5057287;28;20040;-75
2023/06/15 06:47:13;;;;;;;5.07;2.70;;;23.00;47.20;;;;;;5075054;28;20043;-65
2023/06/15 06:49:38;;;;;;;6.22;2.60;;;23.00;47.20;;;;;;5073998;28;20068;-64
2023/06/15 06:52:05;;;;;;;6.18;2.75;;;23.00;47.30;;;;;;5075039;28;20056;-64
2023/06/15 06:54:30;;;;;;;5.85;3.00;;;23.00;47.40;;;;;;5075068;28;20399;-65
2023/06/15 06:56:56;;;;;;;5.38;2.30;;;23.00;47.40;;;;;;5074403;28;20492;-66
2023/06/15 06:59:22;;;;;;;5.80;2.60;;;23.00;47.70;;;;;;5075105;28;20399;-67
2023/06/15 07:01:47;;;;;;;6.05;2.58;;;23.00;47.80;;;;;;5073062;28;20036;-66
2023/06/15 07:04:13;;;;;;;7.57;2.60;;;23.00;47.80;;;;;;5073762;28;20393;-66
2023/06/15 07:06:38;;;;;;;6.00;2.55;;;23.00;47.90;;;;;;5075209;28;20456;-66
2023/06/15 07:09:04;;;;;;;4.65;2.40;;;23.00;48.00;;;;;;5074474;28;20040;-65
2023/06/15 07:11:29;;;;;;;4.10;2.40;;;23.00;48.00;;;;;;5074116;28;20123;-65
2023/06/15 07:13:55;;;;;;;5.68;2.80;;;23.00;48.00;;;;;;5074743;28;20098;-66
2023/06/15 07:16:20;;;;;;;8.05;2.70;;;23.00;47.90;;;;;;5073249;28;20047;-65
2023/06/15 07:18:46;;;;;;;4.32;2.75;;;23.00;47.70;;;;;;5072373;28;20041;-67
2023/06/15 07:21:12;;;;;;;6.57;2.78;;;23.00;47.70;;;;;;5074324;28;20032;-66
2023/06/15 07:23:37;;;;;;;6.88;2.42;;;23.00;47.60;;;;;;5073287;28;20059;-68
2023/06/15 07:26:03;;;;;;;6.53;2.55;;;23.00;47.70;;;;;;5073177;28;20040;-66
2023/06/15 07:28:28;;;;;;;6.65;2.40;;;23.00;47.50;;;;;;5074270;28;20047;-66
2023/06/15 07:30:55;;;;;;;6.90;2.30;;;23.10;47.30;;;;;;5072628;28;20087;-65
2023/06/15 07:33:21;;;;;;;5.70;2.83;;;23.00;47.10;;;;;;5066013;28;20081;-66
2023/06/15 07:35:46;;;;;;;3.65;2.25;;;23.00;47.10;;;;;;5072285;28;20036;-66
2023/06/15 07:38:14;;;;;;;5.90;2.58;;;23.00;47.20;;;;;;5053197;28;20041;-66
2023/06/15 07:40:40;;;;;;;4.82;2.53;;;23.00;47.10;;;;;;5069412;28;20087;-65
2023/06/15 07:43:05;;;;;;;5.07;2.55;;;23.10;47.30;;;;;;5069350;28;20040;-70
2023/06/15 07:45:31;;;;;;;5.93;2.30;;;23.10;47.40;;;;;;5053901;28;20091;-66
2023/06/15 07:47:56;;;;;;;9.25;2.63;;;23.10;47.10;;;;;;5052312;28;20045;-67
2023/06/15 07:50:22;;;;;;;4.38;2.50;;;23.10;47.10;;;;;;5054074;28;20041;-67
2023/06/15 07:52:49;;;;;;;8.25;2.78;;;23.10;47.00;;;;;;5070543;28;20089;-66
2023/06/15 07:55:15;;;;;;;7.05;2.42;;;23.10;46.90;;;;;;5072594;28;20048;-65
2023/06/15 07:57:40;;;;;;;5.45;2.50;;;23.10;46.90;;;;;;5073754;28;20407;-66
2023/06/15 08:00:07;;;;;;;7.82;2.63;;;23.10;46.60;;;;;;5071642;28;20151;-69
2023/06/15 08:02:33;;;;;;;6.28;2.50;;;23.20;46.50;;;;;;5074100;28;20051;-66
2023/06/15 08:04:58;;;;;;;5.03;2.50;;;23.20;46.60;;;;;;5073601;28;20040;-66
2023/06/15 08:07:24;;;;;;;5.40;2.63;;;23.20;46.60;;;;;;5069913;28;20519;-66
2023/06/15 08:09:49;;;;;;;5.78;2.47;;;23.20;46.50;;;;;;5073171;28;20139;-66
2023/06/15 08:12:17;;;;;;;7.13;2.83;;;23.20;46.50;;;;;;5071332;28;20135;-66
2023/06/15 08:14:42;;;;;;;6.57;3.00;;;23.20;46.70;;;;;;5072675;28;20052;-67
2023/06/15 08:17:08;;;;;;;9.38;2.78;;;23.20;46.70;;;;;;5074749;28;20043;-67
2023/06/15 08:19:33;;;;;;;6.43;3.25;;;23.20;46.70;;;;;;5083534;28;20045;-65
2023/06/15 08:21:59;;;;;;;4.13;2.40;;;23.30;46.70;;;;;;5070865;28;20036;-66
2023/06/15 08:24:24;;;;;;;5.68;2.58;;;23.30;46.50;;;;;;5072047;28;20122;-65
2023/06/15 08:26:50;;;;;;;5.82;2.72;;;23.30;46.50;;;;;;5072625;28;20177;-66
2023/06/15 08:29:16;;;;;;;4.20;2.70;;;23.30;46.30;;;;;;5071544;28;20432;-66
2023/06/15 08:31:41;;;;;;;4.78;2.67;;;23.30;46.20;;;;;;5070642;28;20044;-66
2023/06/15 08:34:08;;;;;;;5.88;2.50;;;23.30;46.20;;;;;;5051975;28;20041;-66
2023/06/15 08:36:33;;;;;;;6.07;2.50;;;23.30;46.10;;;;;;5060386;28;20083;-66
2023/06/15 08:38:59;;;;;;;6.40;2.70;;;23.30;46.20;;;;;;5050907;28;20084;-66
2023/06/15 08:41:26;;;;;;;5.45;2.80;;;23.30;46.20;;;;;;5069171;28;20046;-65
2023/06/15 08:43:52;;;;;;;4.65;2.80;;;23.40;46.30;;;;;;5070370;28;20480;-66
2023/06/15 08:46:18;;;;;;;6.03;2.58;;;23.40;46.20;;;;;;5053428;28;20040;-66
2023/06/15 08:48:45;;;;;;;8.77;2.80;;;23.40;46.20;;;;;;5069187;28;20039;-66
2023/06/15 08:51:12;;;;;;;5.78;2.50;;;23.40;46.10;;;;;;5054753;28;20052;-67
2023/06/15 08:53:39;;;;;;;6.05;2.80;;;23.30;46.10;;;;;;5070965;28;20049;-67
2023/06/15 08:56:06;;;;;;;5.63;2.33;;;23.40;46.20;;;;;;5070224;28;20043;-66
2023/06/15 08:58:32;;;;;;;4.40;2.40;;;23.40;46.80;;;;;;5038238;28;20098;-66
2023/06/15 09:01:00;;;;;;;4.53;2.60;;;23.40;46.10;;;;;;5072025;28;20033;-67
2023/06/15 09:03:25;;;;;;;4.93;2.38;;;23.40;46.00;;;;;;5034860;28;20094;-66
2023/06/15 09:05:51;;;;;;;4.63;2.42;;;23.50;46.10;;;;;;5047576;28;20044;-66
2023/06/15 09:08:17;;;;;;;5.43;2.38;;;23.40;45.90;;;;;;5054444;28;20045;-66
2023/06/15 09:10:42;;;;;;;4.28;2.42;;;23.40;45.70;;;;;;5053848;28;20492;-66
2023/06/15 09:13:16;;;;;;;4.63;2.42;;;23.50;45.70;;;;;;5070701;28;20043;-66
2023/06/15 09:15:43;;;;;;;4.22;2.40;;;23.50;45.60;;;;;;5071144;28;20075;-66
2023/06/15 09:18:10;;;;;;;5.68;2.58;;;23.50;45.60;;;;;;5070203;28;20048;-65
2023/06/15 09:20:39;;;;;;;5.28;2.47;;;23.50;45.60;;;;;;5071299;28;20048;-66
2023/06/15 09:23:05;;;;;;;5.20;2.50;;;23.50;45.40;;;;;;5071992;28;20446;-65
2023/06/15 09:25:36;;;;;;;4.18;2.38;;;23.50;45.30;;;;;;5050244;28;20098;-65
2023/06/15 09:28:04;;;;;;;5.80;2.60;;;23.50;45.20;;;;;;5051867;28;20063;-66
2023/06/15 09:30:39;;;;;;;4.53;2.75;;;23.50;45.10;;;;;;5059981;28;20483;-66
2023/06/15 09:33:18;;;;;;;7.22;2.63;;;23.50;44.90;;;;;;5072090;28;20498;-78
2023/06/15 09:36:02;;;;;;;10.18;3.42;;;23.50;45.10;;;;;;5071254;28;20040;-74
2023/06/15 09:38:41;;;;;;;12.20;3.28;;;23.50;45.30;;;;;;5070309;28;20041;-71
2023/06/15 09:41:07;;;;;;;8.25;3.25;;;23.50;45.50;;;;;;5072284;28;20036;-74
2023/06/15 09:43:36;;;;;;;8.57;3.33;;;23.50;45.60;;;;;;5071077;28;20074;-71
2023/06/15 09:46:12;;;;;;;8.77;2.85;;;23.50;45.70;;;;;;5068277;28;20034;-73
2023/06/15 09:48:38;;;;;;;9.00;3.00;;;23.60;46.20;;;;;;5075882;28;20047;-74
2023/06/15 09:51:04;;;;;;;12.43;3.40;;;23.60;46.40;;;;;;5075711;28;20488;-73
2023/06/15 09:53:33;;;;;;;7.78;3.38;;;23.60;46.60;;;;;;5074678;28;20120;-74
2023/06/15 09:55:59;;;;;;;8.73;3.13;;;23.70;46.90;;;;;;5073759;28;20055;-75
2023/06/15 09:58:25;;;;;;;10.35;3.28;;;23.70;47.00;;;;;;5074995;28;20442;-75
2023/06/15 10:00:51;;;;;;;8.63;3.10;;;23.70;47.20;;;;;;5074489;28;20484;-72
2023/06/15 10:03:21;;;;;;;10.05;3.10;;;23.70;47.40;;;;;;5057424;28;20098;-74
2023/06/15 10:05:49;;;;;;;9.30;3.00;;;23.70;47.50;;;;;;5075414;28;20191;-73
2023/06/15 10:08:14;;;;;;;9.82;3.30;;;23.70;47.70;;;;;;5057614;28;20040;-75
2023/06/15 10:10:42;;;;;;;9.73;2.92;;;23.70;47.70;;;;;;5072017;28;20123;-67
2023/06/15 10:13:23;;;;;;;6.60;2.97;;;23.70;47.80;;;;;;5072879;28;20075;-68
2023/06/15 10:15:52;;;;;;;7.55;3.00;;;23.70;47.80;;;;;;5074852;28;20047;-68
2023/06/15 10:18:19;;;;;;;7.97;3.08;;;23.70;47.80;;;;;;5074229;28;20131;-67
2023/06/15 10:20:44;;;;;;;9.13;3.30;;;23.80;48.00;;;;;;5057663;28;20047;-68
2023/06/15 10:23:12;;;;;;;8.65;3.08;;;23.80;48.20;;;;;;5040983;28;20131;-68
2023/06/15 10:25:38;;;;;;;;;;;23.80;48.30;;;;;;5075148;28;20041;-68
2023/06/15 10:28:09;;;;;;;5.55;2.85;;;23.80;48.60;;;;;;5072962;28;20399;-67
2023/06/15 10:30:38;;;;;;;6.65;3.17;;;23.80;48.30;;;;;;5075761;28;20515;-68
2023/06/15 10:33:41;;;;;;;6.65;3.47;;;23.80;48.40;;;;;;5057394;28;20040;-65
2023/06/15 10:36:24;;;;;;;7.40;3.25;;;23.80;48.50;;;;;;5074203;28;20106;-66
2023/06/15 10:38:58;;;;;;;8.75;3.00;;;23.80;48.50;;;;;;5058838;28;20087;-66
2023/06/15 10:41:24;;;;;;;8.60;2.90;;;23.80;48.70;;;;;;5072625;28;20044;-67
2023/06/15 10:44:00;;;;;;;7.05;2.83;;;23.90;48.80;;;;;;5074381;28;20040;-66
2023/06/15 10:46:44;;;;;;;8.48;2.72;;;23.90;48.90;;;;;;5073343;28;20044;-71
2023/06/15 10:49:11;;;;;;;7.22;3.00;;;23.80;48.80;;;;;;5091483;28;20089;-71
2023/06/15 10:51:41;;;;;;;11.60;2.97;;;23.90;48.80;;;;;;5094867;28;20393;-72
2023/06/15 10:54:24;;;;;;;6.47;2.85;;;23.90;49.10;;;;;;5076175;28;20298;-69
2023/06/15 10:56:50;;;;;;;8.82;2.85;;;23.90;49.20;;;;;;5056416;28;20044;-69
2023/06/15 10:59:35;;;;;;;5.97;2.78;;;23.90;49.20;;;;;;5074495;28;20403;-69
2023/06/15 11:02:00;;;;;;;6.10;2.92;;;23.90;49.30;;;;;;5058643;28;20041;-70
2023/06/15 11:04:31;;;;;;;9.70;2.80;;;23.90;49.40;;;;;;5073816;28;20467;-74
2023/06/15 11:06:57;;;;;;;6.03;2.78;;;23.90;49.50;;;;;;5075124;28;20078;-69
2023/06/15 11:09:25;;;;;;;7.53;2.90;;;23.90;49.60;;;;;;5074444;28;20075;-69
2023/06/15 11:11:50;;;;;;;6.30;3.20;;;23.90;49.50;;;;;;5073637;28;20051;-69
2023/06/15 11:14:19;;;;;;;6.95;3.05;;;24.00;49.40;;;;;;5073658;28;20052;-69
2023/06/15 11:16:45;;;;;;;5.00;2.50;;;24.00;49.40;;;;;;5072839;28;20045;-69
2023/06/15 11:19:10;;;;;;;8.05;2.95;;;24.00;49.40;;;;;;5074346;28;20046;-69
2023/06/15 11:22:04;;;;;;;6.78;2.50;;;24.00;49.40;;;;;;5073717;28;20728;-69
2023/06/15 11:24:36;;;;;;;5.63;2.65;;;24.00;49.40;;;;;;5067177;28;20060;-69
2023/06/15 11:27:12;;;;;;;6.28;2.70;;;24.00;49.40;;;;;;5073331;28;20403;-70
2023/06/15 11:29:41;;;;;;;7.10;2.92;;;24.00;49.40;;;;;;5074464;28;20048;-69
2023/06/15 11:32:08;;;;;;;6.13;2.75;;;24.00;49.30;;;;;;5073510;28;20063;-69
2023/06/15 11:34:34;;;;;;;5.93;2.45;;;24.00;49.30;;;;;;5074733;28;20123;-69
2023/06/15 11:37:00;;;;;;;5.50;2.50;;;24.00;49.30;;;;;;5073258;28;20059;-69
2023/06/15 11:39:27;;;;;;;6.13;2.17;;;24.00;49.40;;;;;;5053194;28;20045;-69
2023/06/15 11:41:56;;;;;;;5.75;2.70;;;24.00;49.40;;;;;;5053247;28;20151;-69
2023/06/15 11:44:22;;;;;;;6.50;2.92;;;24.00;49.40;;;;;;5053838;28;20131;-69
2023/06/15 11:46:58;;;;;;;5.90;2.40;;;24.00;49.40;;;;;;5060769;28;20115;-69
2023/06/15 11:49:24;;;;;;;6.93;2.63;;;24.00;49.40;;;;;;5074148;28;20442;-69
2023/06/15 11:51:52;;;;;;;5.75;2.40;;;24.00;50.10;;;;;;5072337;28;20059;-69
2023/06/15 11:54:22;;;;;;;5.68;2.78;;;24.00;49.40;;;;;;5073933;28;20041;-69
2023/06/15 11:56:48;;;;;;;4.68;2.22;;;24.00;49.40;;;;;;5072958;28;20209;-69
2023/06/15 11:59:19;;;;;;;5.22;2.65;;;24.00;49.40;;;;;;5071528;28;20456;-70
2023/06/15 12:01:44;;;;;;;6.30;2.20;;;24.00;49.50;;;;;;5065092;28;20053;-69
2023/06/15 12:04:12;;;;;;;6.13;2.50;;;24.00;49.50;;;;;;5053580;28;20045;-69
2023/06/15 12:06:45;;;;;;;6.65;2.40;;;24.00;49.50;;;;;;5068852;28;20064;-69
2023/06/15 12:09:10;;;;;;;6.63;2.45;;;24.00;49.50;;;;;;5053714;28;20040;-69
2023/06/15 12:11:36;;;;;;;4.13;2.30;;;24.10;49.60;;;;;;5052886;28;20051;-69
2023/06/15 12:14:09;;;;;;;4.97;2.40;;;24.00;49.60;;;;;;5051416;28;20037;-69
2023/06/15 12:16:35;;;;;;;3.33;2.20;;;24.00;49.60;;;;;;5052527;28;20067;-69
2023/06/15 12:19:01;;;;;;;5.45;2.20;;;24.00;49.60;;;;;;5053268;28;20186;-69
2023/06/15 12:21:36;;;;;;;4.15;2.28;;;24.00;49.60;;;;;;5052869;28;20060;-69
2023/06/15 12:24:10;;;;;;;3.83;2.25;;;24.10;49.70;;;;;;5053300;28;20048;-69
2023/06/15 12:26:36;;;;;;;5.07;2.28;;;24.10;49.70;;;;;;5051760;28;20488;-69
2023/06/15 12:29:15;;;;;;;4.85;2.30;;;24.10;49.70;;;;;;5051708;28;20067;-70
2023/06/15 12:31:43;;;;;;;5.45;2.53;;;24.10;49.70;;;;;;5059374;28;20045;-69
2023/06/15 12:34:09;;;;;;;6.20;2.33;;;24.10;49.70;;;;;;5072519;28;20127;-69
2023/06/15 12:36:39;;;;;;;4.00;2.28;;;24.10;50.40;;;;;;5071554;28;20059;-69
2023/06/15 12:39:05;;;;;;;4.00;2.33;;;24.10;49.80;;;;;;5073149;28;20047;-70
2023/06/15 12:41:31;;;;;;;4.38;2.03;;;24.10;49.80;;;;;;5071373;28;20480;-70
2023/06/15 12:43:56;;;;;;;4.05;2.20;;;24.10;49.80;;;;;;5073103;28;20051;-70
2023/06/15 12:46:22;;;;;;;3.58;2.10;;;24.10;49.80;;;;;;5071992;28;20435;-69
2023/06/15 12:48:48;;;;;;;4.57;2.00;;;24.10;49.80;;;;;;5070914;28;20052;-69